SCOT38 YBOK-YBOK
Flight info
| Callsign | SCOT38 |
|---|---|
| Flight time | 0h 11m |
| Altitude | 2500 |
| Route | DCT |
| Aircraft | EC35/L-SDFGRY/LB1 |
Departure
| Time | 2026-04-26 11:49 |
|---|---|
| Airport | Oakey Army Aviation Centre (YBOK) |
Arrival
| Time | 2026-04-26 12:00 |
|---|---|
| Airport | Oakey Army Aviation Centre (YBOK) |
| Time | Latitude | Longitude | Altitude | Speed | Heading |
|---|---|---|---|---|---|
| 2026-04-26 11:30 | -27.41358 | 151.73472 | 1343 ft | 0 kts | 360° |
| 2026-04-26 11:34 | -27.41356 | 151.73472 | 1343 ft | 0 kts | 2° |
| 2026-04-26 11:34 | -27.41343 | 151.73476 | 1347 ft | 5 kts | 8° |
| 2026-04-26 11:34 | -27.41304 | 151.73465 | 1340 ft | 7 kts | 330° |
| 2026-04-26 11:35 | -27.41246 | 151.73458 | 1340 ft | 9 kts | 8° |
| 2026-04-26 11:35 | -27.41188 | 151.73467 | 1343 ft | 7 kts | 8° |
| 2026-04-26 11:35 | -27.41148 | 151.73477 | 1342 ft | 7 kts | 8° |
| 2026-04-26 11:35 | -27.41118 | 151.73487 | 1343 ft | 9 kts | 11° |
| 2026-04-26 11:36 | -27.41080 | 151.73552 | 1401 ft | 18 kts | 95° |
| 2026-04-26 11:36 | -27.41132 | 151.73827 | 1506 ft | 52 kts | 95° |
| 2026-04-26 11:36 | -27.41139 | 151.74304 | 1648 ft | 69 kts | 57° |
| 2026-04-26 11:36 | -27.40692 | 151.74449 | 1721 ft | 77 kts | 340° |
| 2026-04-26 11:37 | -27.40349 | 151.73986 | 1748 ft | 84 kts | 280° |
| 2026-04-26 11:37 | -27.40210 | 151.73301 | 1735 ft | 94 kts | 279° |
| 2026-04-26 11:37 | -27.40058 | 151.72570 | 1716 ft | 97 kts | 281° |
| 2026-04-26 11:37 | -27.39898 | 151.71818 | 1657 ft | 100 kts | 282° |
| 2026-04-26 11:38 | -27.39731 | 151.71052 | 1621 ft | 100 kts | 283° |
| 2026-04-26 11:38 | -27.39549 | 151.70311 | 1630 ft | 93 kts | 296° |
| 2026-04-26 11:38 | -27.39111 | 151.69855 | 1708 ft | 82 kts | 326° |
| 2026-04-26 11:38 | -27.38902 | 151.69326 | 1766 ft | 77 kts | 254° |
| 2026-04-26 11:39 | -27.39295 | 151.69012 | 1774 ft | 69 kts | 177° |
| 2026-04-26 11:39 | -27.39692 | 151.69222 | 1829 ft | 67 kts | 133° |
| 2026-04-26 11:39 | -27.39992 | 151.69620 | 1835 ft | 67 kts | 121° |
| 2026-04-26 11:39 | -27.40146 | 151.70128 | 1829 ft | 70 kts | 104° |
| 2026-04-26 11:40 | -27.40228 | 151.70663 | 1845 ft | 68 kts | 100° |
| 2026-04-26 11:40 | -27.40293 | 151.71197 | 1834 ft | 73 kts | 100° |
| 2026-04-26 11:40 | -27.40374 | 151.71776 | 1788 ft | 74 kts | 101° |
| 2026-04-26 11:40 | -27.40466 | 151.72359 | 1704 ft | 77 kts | 100° |
| 2026-04-26 11:41 | -27.40537 | 151.72916 | 1565 ft | 63 kts | 101° |
| 2026-04-26 11:42 | -27.40184 | 151.73893 | 1673 ft | 67 kts | 284° |
| 2026-04-26 11:43 | -27.40088 | 151.73385 | 1707 ft | 67 kts | 278° |
| 2026-04-26 11:43 | -27.39979 | 151.72867 | 1716 ft | 70 kts | 278° |
| 2026-04-26 11:43 | -27.40178 | 151.72456 | 1626 ft | 59 kts | 175° |
| 2026-04-26 11:43 | -27.40443 | 151.72727 | 1517 ft | 53 kts | 111° |
| 2026-04-26 11:44 | -27.40554 | 151.73113 | 1454 ft | 51 kts | 106° |
| 2026-04-26 11:44 | -27.40613 | 151.73472 | 1373 ft | 38 kts | 99° |
| 2026-04-26 11:44 | -27.40636 | 151.73643 | 1352 ft | 6 kts | 98° |
| 2026-04-26 11:44 | -27.40648 | 151.73736 | 1382 ft | 30 kts | 96° |
| 2026-04-26 11:45 | -27.40707 | 151.74141 | 1537 ft | 68 kts | 98° |
| 2026-04-26 11:45 | -27.40674 | 151.74734 | 1683 ft | 86 kts | 53° |
| 2026-04-26 11:45 | -27.40108 | 151.74719 | 1707 ft | 96 kts | 311° |
| 2026-04-26 11:45 | -27.39933 | 151.74029 | 1725 ft | 91 kts | 279° |
| 2026-04-26 11:46 | -27.39815 | 151.73363 | 1720 ft | 81 kts | 278° |
| 2026-04-26 11:46 | -27.39740 | 151.72803 | 1738 ft | 66 kts | 267° |
| 2026-04-26 11:46 | -27.39994 | 151.72466 | 1692 ft | 57 kts | 181° |
| 2026-04-26 11:46 | -27.40317 | 151.72666 | 1603 ft | 54 kts | 124° |
| 2026-04-26 11:47 | -27.40498 | 151.73036 | 1478 ft | 53 kts | 115° |
| 2026-04-26 11:47 | -27.40602 | 151.73412 | 1378 ft | 47 kts | 101° |
| 2026-04-26 11:47 | -27.40635 | 151.73658 | 1351 ft | 13 kts | 99° |
| 2026-04-26 11:47 | -27.40647 | 151.73745 | 1372 ft | 21 kts | 97° |
| 2026-04-26 11:48 | -27.40680 | 151.74042 | 1472 ft | 53 kts | 96° |
| 2026-04-26 11:48 | -27.40504 | 151.74479 | 1560 ft | 79 kts | 28° |
| 2026-04-26 11:48 | -27.39929 | 151.74642 | 1634 ft | 90 kts | 9° |
| 2026-04-26 11:48 | -27.39299 | 151.74723 | 1699 ft | 94 kts | 13° |
| 2026-04-26 11:49 | -27.38635 | 151.74734 | 1809 ft | 96 kts | 9° |
| 2026-04-26 11:49 | -27.37969 | 151.74750 | 2162 ft | 97 kts | 8° |
| 2026-04-26 11:49 | -27.37300 | 151.74775 | 2344 ft | 95 kts | 9° |
| 2026-04-26 11:49 | -27.36637 | 151.74782 | 2420 ft | 96 kts | 8° |
| 2026-04-26 11:50 | -27.35972 | 151.74790 | 2451 ft | 95 kts | 8° |
| 2026-04-26 11:50 | -27.35310 | 151.74790 | 2464 ft | 95 kts | 8° |
| 2026-04-26 11:50 | -27.34645 | 151.74783 | 2472 ft | 95 kts | 8° |
| 2026-04-26 11:50 | -27.33984 | 151.74779 | 2475 ft | 94 kts | 8° |
| 2026-04-26 11:51 | -27.33318 | 151.74768 | 2473 ft | 97 kts | 8° |
| 2026-04-26 11:51 | -27.32649 | 151.74761 | 2479 ft | 95 kts | 7° |
| 2026-04-26 11:51 | -27.31992 | 151.74768 | 2477 ft | 94 kts | 7° |
| 2026-04-26 11:51 | -27.31347 | 151.74782 | 2476 ft | 95 kts | 8° |
| 2026-04-26 11:52 | -27.30677 | 151.74751 | 2475 ft | 99 kts | 351° |
| 2026-04-26 11:52 | -27.30275 | 151.74487 | 2479 ft | 101 kts | 320° |
| 2026-04-26 11:52 | -27.29929 | 151.73527 | 2477 ft | 102 kts | 281° |
| 2026-04-26 11:52 | -27.29804 | 151.72743 | 2475 ft | 102 kts | 280° |
| 2026-04-26 11:53 | -27.29678 | 151.71957 | 2476 ft | 102 kts | 279° |
| 2026-04-26 11:53 | -27.29543 | 151.71176 | 2474 ft | 102 kts | 279° |
| 2026-04-26 11:53 | -27.29431 | 151.70388 | 2476 ft | 102 kts | 263° |
| 2026-04-26 11:54 | -27.30281 | 151.69390 | 2478 ft | 91 kts | 193° |
| 2026-04-26 11:54 | -27.30876 | 151.69152 | 2480 ft | 90 kts | 192° |
| 2026-04-26 11:54 | -27.31464 | 151.68919 | 2476 ft | 90 kts | 192° |
| 2026-04-26 11:54 | -27.32058 | 151.68683 | 2479 ft | 91 kts | 192° |
| 2026-04-26 11:55 | -27.32652 | 151.68432 | 2477 ft | 91 kts | 192° |
| 2026-04-26 11:55 | -27.33238 | 151.68176 | 2476 ft | 90 kts | 192° |
| 2026-04-26 11:55 | -27.33829 | 151.67923 | 2477 ft | 90 kts | 192° |
| 2026-04-26 11:55 | -27.34414 | 151.67672 | 2476 ft | 90 kts | 191° |
| 2026-04-26 11:56 | -27.34996 | 151.67409 | 2474 ft | 91 kts | 193° |
| 2026-04-26 11:56 | -27.35592 | 151.67156 | 2476 ft | 92 kts | 192° |
| 2026-04-26 11:56 | -27.36182 | 151.66906 | 2478 ft | 89 kts | 192° |
| 2026-04-26 11:56 | -27.36767 | 151.66686 | 2474 ft | 88 kts | 179° |
| 2026-04-26 11:57 | -27.37366 | 151.66717 | 2480 ft | 85 kts | 166° |
| 2026-04-26 11:57 | -27.37946 | 151.66805 | 2476 ft | 83 kts | 156° |
| 2026-04-26 11:57 | -27.38456 | 151.67088 | 2478 ft | 81 kts | 145° |
| 2026-04-26 11:57 | -27.38940 | 151.67412 | 2472 ft | 82 kts | 135° |
| 2026-04-26 11:58 | -27.39314 | 151.67931 | 2432 ft | 89 kts | 118° |
| 2026-04-26 11:58 | -27.39616 | 151.68566 | 2372 ft | 94 kts | 113° |
| 2026-04-26 11:58 | -27.39786 | 151.69016 | 2332 ft | 95 kts | 109° |
| 2026-04-26 11:58 | -27.39996 | 151.69725 | 2256 ft | 96 kts | 107° |
| 2026-04-26 11:59 | -27.40165 | 151.70464 | 2092 ft | 99 kts | 103° |
| 2026-04-26 11:59 | -27.40289 | 151.71187 | 1959 ft | 88 kts | 101° |
| 2026-04-26 11:59 | -27.40388 | 151.71826 | 1851 ft | 77 kts | 101° |
| 2026-04-26 11:59 | -27.40467 | 151.72388 | 1719 ft | 67 kts | 100° |
| 2026-04-26 12:00 | -27.40526 | 151.72857 | 1604 ft | 55 kts | 101° |
| 2026-04-26 12:00 | -27.40582 | 151.73243 | 1468 ft | 46 kts | 101° |
| 2026-04-26 12:00 | -27.40624 | 151.73534 | 1391 ft | 30 kts | 101° |
| 2026-04-26 12:00 | -27.40646 | 151.73717 | 1390 ft | 27 kts | 100° |
| 2026-04-26 12:01 | -27.40685 | 151.73989 | 1511 ft | 46 kts | 98° |
| 2026-04-26 12:01 | -27.40625 | 151.74380 | 1633 ft | 64 kts | 48° |
| 2026-04-26 12:01 | -27.40147 | 151.74377 | 1690 ft | 78 kts | 327° |
| 2026-04-26 12:01 | -27.39948 | 151.73853 | 1717 ft | 74 kts | 279° |
| 2026-04-26 12:02 | -27.39838 | 151.73281 | 1744 ft | 76 kts | 277° |
| 2026-04-26 12:02 | -27.39799 | 151.72684 | 1732 ft | 79 kts | 244° |
| 2026-04-26 12:02 | -27.40230 | 151.72472 | 1616 ft | 74 kts | 146° |
| 2026-04-26 12:02 | -27.40496 | 151.72944 | 1478 ft | 73 kts | 108° |
| 2026-04-26 12:03 | -27.40609 | 151.73443 | 1426 ft | 56 kts | 99° |
| 2026-04-26 12:03 | -27.40662 | 151.73834 | 1433 ft | 52 kts | 97° |
| 2026-04-26 12:03 | -27.40679 | 151.74266 | 1539 ft | 59 kts | 71° |
| 2026-04-26 12:03 | -27.40299 | 151.74361 | 1653 ft | 70 kts | 322° |
| 2026-04-26 12:04 | -27.40138 | 151.73828 | 1725 ft | 73 kts | 278° |
| 2026-04-26 12:04 | -27.40051 | 151.73228 | 1745 ft | 82 kts | 278° |
| 2026-04-26 12:04 | -27.40007 | 151.72575 | 1733 ft | 84 kts | 243° |
| 2026-04-26 12:04 | -27.40423 | 151.72499 | 1600 ft | 70 kts | 118° |
| 2026-04-26 12:05 | -27.40539 | 151.72990 | 1503 ft | 59 kts | 100° |
| 2026-04-26 12:05 | -27.40604 | 151.73399 | 1429 ft | 49 kts | 98° |
| 2026-04-26 12:05 | -27.40638 | 151.73680 | 1377 ft | 19 kts | 98° |
| 2026-04-26 12:05 | -27.40662 | 151.73882 | 1379 ft | 39 kts | 98° |
| 2026-04-26 12:06 | -27.40703 | 151.74239 | 1472 ft | 53 kts | 95° |
| 2026-04-26 12:06 | -27.40646 | 151.74677 | 1595 ft | 67 kts | 49° |
| 2026-04-26 12:06 | -27.40187 | 151.74692 | 1656 ft | 76 kts | 316° |
| 2026-04-26 12:06 | -27.40008 | 151.74143 | 1707 ft | 81 kts | 275° |
| 2026-04-26 12:07 | -27.39919 | 151.73513 | 1725 ft | 81 kts | 272° |
| 2026-04-26 12:07 | -27.39933 | 151.72879 | 1723 ft | 84 kts | 237° |
| 2026-04-26 12:07 | -27.40402 | 151.72792 | 1564 ft | 75 kts | 124° |
| 2026-04-26 12:07 | -27.40572 | 151.73254 | 1419 ft | 52 kts | 102° |
| 2026-04-26 12:08 | -27.40625 | 151.73553 | 1364 ft | 22 kts | 102° |
| 2026-04-26 12:08 | -27.40639 | 151.73646 | 1352 ft | 8 kts | 98° |
| 2026-04-26 12:08 | -27.40659 | 151.73807 | 1378 ft | 40 kts | 99° |
| 2026-04-26 12:08 | -27.40703 | 151.74213 | 1497 ft | 62 kts | 95° |
| 2026-04-26 12:09 | -27.40568 | 151.74687 | 1599 ft | 79 kts | 30° |
| 2026-04-26 12:09 | -27.40117 | 151.74490 | 1690 ft | 78 kts | 284° |
| 2026-04-26 12:09 | -27.40013 | 151.73868 | 1716 ft | 83 kts | 274° |
| 2026-04-26 12:09 | -27.39902 | 151.73231 | 1762 ft | 86 kts | 287° |
| 2026-04-26 12:10 | -27.39845 | 151.72555 | 1760 ft | 86 kts | 278° |
| 2026-04-26 12:10 | -27.39760 | 151.71886 | 1752 ft | 87 kts | 279° |
| 2026-04-26 12:10 | -27.39655 | 151.71217 | 1755 ft | 85 kts | 279° |
| 2026-04-26 12:10 | -27.39545 | 151.70557 | 1758 ft | 86 kts | 279° |
| 2026-04-26 12:11 | -27.39448 | 151.69892 | 1753 ft | 87 kts | 268° |
| 2026-04-26 12:11 | -27.39790 | 151.69418 | 1720 ft | 83 kts | 191° |
| 2026-04-26 12:11 | -27.40284 | 151.69624 | 1626 ft | 82 kts | 124° |
| 2026-04-26 12:11 | -27.40515 | 151.70216 | 1592 ft | 85 kts | 109° |
| 2026-04-26 12:12 | -27.40648 | 151.70853 | 1582 ft | 84 kts | 103° |
| 2026-04-26 12:12 | -27.40760 | 151.71499 | 1526 ft | 84 kts | 101° |
| 2026-04-26 12:12 | -27.40857 | 151.72145 | 1477 ft | 81 kts | 101° |
| 2026-04-26 12:12 | -27.40917 | 151.72550 | 1397 ft | 74 kts | 101° |
| 2026-04-26 12:13 | -27.41004 | 151.73122 | 1360 ft | 37 kts | 101° |
| 2026-04-26 12:13 | -27.41036 | 151.73307 | 1347 ft | 16 kts | 103° |
| 2026-04-26 12:13 | -27.41048 | 151.73411 | 1346 ft | 12 kts | 102° |
| 2026-04-26 12:13 | -27.41092 | 151.73488 | 1349 ft | 13 kts | 177° |
| 2026-04-26 12:14 | -27.41176 | 151.73468 | 1347 ft | 13 kts | 181° |
| 2026-04-26 12:14 | -27.41250 | 151.73453 | 1347 ft | 10 kts | 180° |
| 2026-04-26 12:14 | -27.41304 | 151.73476 | 1349 ft | 12 kts | 123° |
| 2026-04-26 12:14 | -27.41317 | 151.73556 | 1352 ft | 11 kts | 99° |
| 2026-04-26 12:15 | -27.41330 | 151.73641 | 1350 ft | 11 kts | 99° |
| 2026-04-26 12:15 | -27.41344 | 151.73729 | 1346 ft | 10 kts | 99° |
| 2026-04-26 12:15 | -27.41349 | 151.73776 | 1336 ft | 0 kts | 98° |